sensor_id;sensor_type;location;lat;lon;timestamp;temperature;humidity
79698;SHT31;69168;42.708;23.286;2023-11-19T00:01:37;3.27;69.76
79698;SHT31;69168;42.708;23.286;2023-11-19T00:04:06;3.36;69.57
79698;SHT31;69168;42.708;23.286;2023-11-19T00:06:31;3.33;69.55
79698;SHT31;69168;42.708;23.286;2023-11-19T00:08:57;3.32;69.31
79698;SHT31;69168;42.708;23.286;2023-11-19T00:11:25;3.26;69.59
79698;SHT31;69168;42.708;23.286;2023-11-19T00:13:51;3.30;69.45
79698;SHT31;69168;42.708;23.286;2023-11-19T00:16:16;3.37;69.05
79698;SHT31;69168;42.708;23.286;2023-11-19T00:18:45;3.27;69.36
79698;SHT31;69168;42.708;23.286;2023-11-19T00:21:11;3.30;69.20
79698;SHT31;69168;42.708;23.286;2023-11-19T00:23:54;3.32;69.09
79698;SHT31;69168;42.708;23.286;2023-11-19T00:26:20;3.27;69.45
79698;SHT31;69168;42.708;23.286;2023-11-19T00:28:48;3.36;69.36
79698;SHT31;69168;42.708;23.286;2023-11-19T00:31:14;3.35;69.15
79698;SHT31;69168;42.708;23.286;2023-11-19T00:33:42;3.25;69.52
79698;SHT31;69168;42.708;23.286;2023-11-19T00:36:08;3.27;69.78
79698;SHT31;69168;42.708;23.286;2023-11-19T00:38:33;3.20;69.63
79698;SHT31;69168;42.708;23.286;2023-11-19T00:41:01;3.27;69.76
79698;SHT31;69168;42.708;23.286;2023-11-19T00:43:28;3.29;69.92
79698;SHT31;69168;42.708;23.286;2023-11-19T00:45:54;3.26;69.46
79698;SHT31;69168;42.708;23.286;2023-11-19T00:48:22;3.25;69.79
79698;SHT31;69168;42.708;23.286;2023-11-19T00:50:48;3.22;69.99
79698;SHT31;69168;42.708;23.286;2023-11-19T00:53:14;3.27;69.76
79698;SHT31;69168;42.708;23.286;2023-11-19T00:55:39;3.35;69.59
79698;SHT31;69168;42.708;23.286;2023-11-19T00:58:05;3.19;69.86
79698;SHT31;69168;42.708;23.286;2023-11-19T01:00:30;3.32;69.77
79698;SHT31;69168;42.708;23.286;2023-11-19T01:02:57;3.26;69.81
79698;SHT31;69168;42.708;23.286;2023-11-19T01:05:26;3.30;69.75
79698;SHT31;69168;42.708;23.286;2023-11-19T01:07:53;3.29;69.77
79698;SHT31;69168;42.708;23.286;2023-11-19T01:10:19;3.32;69.60
79698;SHT31;69168;42.708;23.286;2023-11-19T01:12:45;3.25;69.72
79698;SHT31;69168;42.708;23.286;2023-11-19T01:15:11;3.26;69.62
79698;SHT31;69168;42.708;23.286;2023-11-19T01:17:37;3.33;69.42
79698;SHT31;69168;42.708;23.286;2023-11-19T01:20:06;3.19;69.73
79698;SHT31;69168;42.708;23.286;2023-11-19T01:22:32;3.26;69.49
79698;SHT31;69168;42.708;23.286;2023-11-19T01:24:57;3.26;69.80
79698;SHT31;69168;42.708;23.286;2023-11-19T01:27:26;3.29;69.66
79698;SHT31;69168;42.708;23.286;2023-11-19T01:29:51;3.20;69.69
79698;SHT31;69168;42.708;23.286;2023-11-19T01:32:17;3.20;69.73
79698;SHT31;69168;42.708;23.286;2023-11-19T01:34:42;3.29;69.27
79698;SHT31;69168;42.708;23.286;2023-11-19T01:37:07;3.32;69.39
79698;SHT31;69168;42.708;23.286;2023-11-19T01:39:37;3.26;69.44
79698;SHT31;69168;42.708;23.286;2023-11-19T01:42:03;3.23;69.35
79698;SHT31;69168;42.708;23.286;2023-11-19T01:44:29;3.29;69.21
79698;SHT31;69168;42.708;23.286;2023-11-19T01:46:54;3.18;69.15
79698;SHT31;69168;42.708;23.286;2023-11-19T01:49:20;3.16;68.97
79698;SHT31;69168;42.708;23.286;2023-11-19T01:51:46;3.15;68.72
79698;SHT31;69168;42.708;23.286;2023-11-19T01:54:15;3.25;68.68
79698;SHT31;69168;42.708;23.286;2023-11-19T01:56:41;3.22;68.47
79698;SHT31;69168;42.708;23.286;2023-11-19T01:59:11;3.22;68.21
79698;SHT31;69168;42.708;23.286;2023-11-19T02:01:39;3.23;68.47
79698;SHT31;69168;42.708;23.286;2023-11-19T02:04:08;3.22;68.10
79698;SHT31;69168;42.708;23.286;2023-11-19T02:06:37;3.18;68.05
79698;SHT31;69168;42.708;23.286;2023-11-19T02:09:02;3.19;68.42
79698;SHT31;69168;42.708;23.286;2023-11-19T02:11:33;3.18;68.08
79698;SHT31;69168;42.708;23.286;2023-11-19T02:14:00;3.18;68.63
79698;SHT31;69168;42.708;23.286;2023-11-19T02:16:25;3.18;68.42
79698;SHT31;69168;42.708;23.286;2023-11-19T02:18:51;3.13;68.09
79698;SHT31;69168;42.708;23.286;2023-11-19T02:21:17;3.05;68.53
79698;SHT31;69168;42.708;23.286;2023-11-19T02:23:43;3.12;68.21
79698;SHT31;69168;42.708;23.286;2023-11-19T02:26:13;3.05;68.57
79698;SHT31;69168;42.708;23.286;2023-11-19T02:28:41;3.01;68.63
79698;SHT31;69168;42.708;23.286;2023-11-19T02:31:08;2.88;69.06
79698;SHT31;69168;42.708;23.286;2023-11-19T02:33:40;2.89;68.89
79698;SHT31;69168;42.708;23.286;2023-11-19T02:36:06;2.89;68.79
79698;SHT31;69168;42.708;23.286;2023-11-19T02:38:36;2.87;68.89
79698;SHT31;69168;42.708;23.286;2023-11-19T02:41:05;2.87;68.92
79698;SHT31;69168;42.708;23.286;2023-11-19T02:43:42;2.87;68.98
79698;SHT31;69168;42.708;23.286;2023-11-19T02:46:10;2.94;68.84
79698;SHT31;69168;42.708;23.286;2023-11-19T02:48:36;2.80;69.39
79698;SHT31;69168;42.708;23.286;2023-11-19T02:51:02;2.80;69.50
79698;SHT31;69168;42.708;23.286;2023-11-19T02:53:32;2.76;69.66
79698;SHT31;69168;42.708;23.286;2023-11-19T02:56:09;2.77;69.48
79698;SHT31;69168;42.708;23.286;2023-11-19T02:58:45;2.70;69.56
79698;SHT31;69168;42.708;23.286;2023-11-19T03:01:11;2.80;69.70
79698;SHT31;69168;42.708;23.286;2023-11-19T03:03:48;2.74;69.31
79698;SHT31;69168;42.708;23.286;2023-11-19T03:06:19;2.83;69.37
79698;SHT31;69168;42.708;23.286;2023-11-19T03:08:48;2.85;69.18
79698;SHT31;69168;42.708;23.286;2023-11-19T03:11:41;2.76;69.70
79698;SHT31;69168;42.708;23.286;2023-11-19T03:17:38;2.81;69.44
79698;SHT31;69168;42.708;23.286;2023-11-19T03:20:09;2.92;69.05
79698;SHT31;69168;42.708;23.286;2023-11-19T03:22:39;2.83;69.13
79698;SHT31;69168;42.708;23.286;2023-11-19T03:25:07;2.92;68.99
79698;SHT31;69168;42.708;23.286;2023-11-19T03:27:37;2.94;68.87
79698;SHT31;69168;42.708;23.286;2023-11-19T03:30:08;2.91;68.98
79698;SHT31;69168;42.708;23.286;2023-11-19T03:32:37;2.85;69.00
79698;SHT31;69168;42.708;23.286;2023-11-19T03:35:04;2.73;69.37
79698;SHT31;69168;42.708;23.286;2023-11-19T03:37:32;2.84;69.29
79698;SHT31;69168;42.708;23.286;2023-11-19T03:39:58;2.81;69.25
79698;SHT31;69168;42.708;23.286;2023-11-19T03:42:28;2.88;69.09
79698;SHT31;69168;42.708;23.286;2023-11-19T03:44:55;2.84;69.23
79698;SHT31;69168;42.708;23.286;2023-11-19T03:47:24;2.81;69.22
79698;SHT31;69168;42.708;23.286;2023-11-19T03:49:50;2.83;69.08
79698;SHT31;69168;42.708;23.286;2023-11-19T03:52:17;2.84;69.21
79698;SHT31;69168;42.708;23.286;2023-11-19T03:54:42;2.85;69.27
79698;SHT31;69168;42.708;23.286;2023-11-19T03:57:14;2.85;69.08
79698;SHT31;69168;42.708;23.286;2023-11-19T03:59:41;2.95;68.81
79698;SHT31;69168;42.708;23.286;2023-11-19T04:02:06;2.92;69.08
79698;SHT31;69168;42.708;23.286;2023-11-19T04:04:32;2.95;68.75
79698;SHT31;69168;42.708;23.286;2023-11-19T04:06:59;2.91;68.90
79698;SHT31;69168;42.708;23.286;2023-11-19T04:09:32;3.02;68.84
79698;SHT31;69168;42.708;23.286;2023-11-19T04:11:59;2.94;68.90
79698;SHT31;69168;42.708;23.286;2023-11-19T04:14:26;2.94;69.10
79698;SHT31;69168;42.708;23.286;2023-11-19T04:16:52;2.97;69.05
79698;SHT31;69168;42.708;23.286;2023-11-19T04:19:18;2.98;68.83
79698;SHT31;69168;42.708;23.286;2023-11-19T04:21:44;2.98;69.12
79698;SHT31;69168;42.708;23.286;2023-11-19T04:24:09;3.06;68.70
79698;SHT31;69168;42.708;23.286;2023-11-19T04:26:42;3.04;68.70
79698;SHT31;69168;42.708;23.286;2023-11-19T04:29:14;2.97;68.77
79698;SHT31;69168;42.708;23.286;2023-11-19T04:31:45;2.89;69.21
79698;SHT31;69168;42.708;23.286;2023-11-19T04:34:11;2.84;69.17
79698;SHT31;69168;42.708;23.286;2023-11-19T04:36:37;2.89;69.14
79698;SHT31;69168;42.708;23.286;2023-11-19T04:39:05;2.95;68.87
79698;SHT31;69168;42.708;23.286;2023-11-19T04:41:48;2.94;68.96
79698;SHT31;69168;42.708;23.286;2023-11-19T04:44:14;2.91;68.89
79698;SHT31;69168;42.708;23.286;2023-11-19T04:46:41;2.88;68.91
79698;SHT31;69168;42.708;23.286;2023-11-19T04:49:11;2.88;68.68
79698;SHT31;69168;42.708;23.286;2023-11-19T04:51:46;2.85;68.78
79698;SHT31;69168;42.708;23.286;2023-11-19T04:54:15;2.77;68.78
79698;SHT31;69168;42.708;23.286;2023-11-19T04:56:45;2.77;69.00
79698;SHT31;69168;42.708;23.286;2023-11-19T04:59:19;2.83;68.94
79698;SHT31;69168;42.708;23.286;2023-11-19T05:01:48;2.80;68.93
79698;SHT31;69168;42.708;23.286;2023-11-19T05:04:20;2.74;69.32
79698;SHT31;69168;42.708;23.286;2023-11-19T05:06:45;2.77;68.91
79698;SHT31;69168;42.708;23.286;2023-11-19T05:09:13;2.83;68.97
79698;SHT31;69168;42.708;23.286;2023-11-19T05:11:42;2.95;68.54
79698;SHT31;69168;42.708;23.286;2023-11-19T05:14:11;2.95;68.50
79698;SHT31;69168;42.708;23.286;2023-11-19T05:16:41;2.81;68.71
79698;SHT31;69168;42.708;23.286;2023-11-19T05:19:08;2.83;68.53
79698;SHT31;69168;42.708;23.286;2023-11-19T05:21:34;2.89;68.48
79698;SHT31;69168;42.708;23.286;2023-11-19T05:24:06;2.91;68.52
79698;SHT31;69168;42.708;23.286;2023-11-19T05:26:35;2.83;68.81
79698;SHT31;69168;42.708;23.286;2023-11-19T05:29:00;2.89;68.53
79698;SHT31;69168;42.708;23.286;2023-11-19T05:31:38;2.81;68.60
79698;SHT31;69168;42.708;23.286;2023-11-19T05:34:04;2.80;68.45
79698;SHT31;69168;42.708;23.286;2023-11-19T05:36:29;2.85;68.37
79698;SHT31;69168;42.708;23.286;2023-11-19T05:38:55;2.81;68.57
79698;SHT31;69168;42.708;23.286;2023-11-19T05:41:23;2.87;68.55
79698;SHT31;69168;42.708;23.286;2023-11-19T05:43:52;2.78;68.55
79698;SHT31;69168;42.708;23.286;2023-11-19T05:46:17;2.83;68.70
79698;SHT31;69168;42.708;23.286;2023-11-19T05:48:43;2.78;68.58
79698;SHT31;69168;42.708;23.286;2023-11-19T05:51:10;2.78;68.42
79698;SHT31;69168;42.708;23.286;2023-11-19T05:53:36;2.77;68.33
79698;SHT31;69168;42.708;23.286;2023-11-19T05:56:01;2.71;68.59
79698;SHT31;69168;42.708;23.286;2023-11-19T05:58:29;2.80;68.53
79698;SHT31;69168;42.708;23.286;2023-11-19T06:00:56;2.85;68.43
79698;SHT31;69168;42.708;23.286;2023-11-19T06:03:27;2.89;68.23
79698;SHT31;69168;42.708;23.286;2023-11-19T06:05:58;2.89;68.39
79698;SHT31;69168;42.708;23.286;2023-11-19T06:08:27;2.89;68.40
79698;SHT31;69168;42.708;23.286;2023-11-19T06:10:53;2.73;68.80
79698;SHT31;69168;42.708;23.286;2023-11-19T06:13:18;2.77;68.78
79698;SHT31;69168;42.708;23.286;2023-11-19T06:15:44;2.74;68.91
79698;SHT31;69168;42.708;23.286;2023-11-19T06:18:10;2.73;68.91
79698;SHT31;69168;42.708;23.286;2023-11-19T06:20:36;2.61;69.35
79698;SHT31;69168;42.708;23.286;2023-11-19T06:23:02;2.70;69.18
79698;SHT31;69168;42.708;23.286;2023-11-19T06:25:30;2.80;68.73
79698;SHT31;69168;42.708;23.286;2023-11-19T06:27:56;2.71;69.02
79698;SHT31;69168;42.708;23.286;2023-11-19T06:30:22;2.71;69.03
79698;SHT31;69168;42.708;23.286;2023-11-19T06:32:48;2.68;69.27
79698;SHT31;69168;42.708;23.286;2023-11-19T06:35:13;2.68;69.25
79698;SHT31;69168;42.708;23.286;2023-11-19T06:37:44;2.74;69.04
79698;SHT31;69168;42.708;23.286;2023-11-19T06:40:10;2.81;69.10
79698;SHT31;69168;42.708;23.286;2023-11-19T06:42:37;2.71;68.84
79698;SHT31;69168;42.708;23.286;2023-11-19T06:45:06;2.60;68.70
79698;SHT31;69168;42.708;23.286;2023-11-19T06:47:35;2.71;68.88
79698;SHT31;69168;42.708;23.286;2023-11-19T06:50:06;2.74;68.58
79698;SHT31;69168;42.708;23.286;2023-11-19T06:53:04;2.74;68.56
79698;SHT31;69168;42.708;23.286;2023-11-19T06:55:31;2.71;68.16
79698;SHT31;69168;42.708;23.286;2023-11-19T06:57:59;2.62;68.15
79698;SHT31;69168;42.708;23.286;2023-11-19T07:00:27;2.62;68.09
79698;SHT31;69168;42.708;23.286;2023-11-19T07:02:53;2.56;68.37
79698;SHT31;69168;42.708;23.286;2023-11-19T07:05:18;2.57;68.22
79698;SHT31;69168;42.708;23.286;2023-11-19T07:07:44;2.56;68.18
79698;SHT31;69168;42.708;23.286;2023-11-19T07:10:11;2.60;68.20
79698;SHT31;69168;42.708;23.286;2023-11-19T07:12:36;2.58;68.29
79698;SHT31;69168;42.708;23.286;2023-11-19T07:15:02;2.60;68.33
79698;SHT31;69168;42.708;23.286;2023-11-19T07:17:31;2.57;68.07
79698;SHT31;69168;42.708;23.286;2023-11-19T07:19:56;2.56;68.20
79698;SHT31;69168;42.708;23.286;2023-11-19T07:22:25;2.73;68.07
79698;SHT31;69168;42.708;23.286;2023-11-19T07:24:53;2.73;67.80
79698;SHT31;69168;42.708;23.286;2023-11-19T07:27:22;2.65;67.94
79698;SHT31;69168;42.708;23.286;2023-11-19T07:29:49;2.51;68.28
79698;SHT31;69168;42.708;23.286;2023-11-19T07:32:15;2.62;67.60
79698;SHT31;69168;42.708;23.286;2023-11-19T07:34:40;2.60;67.90
79698;SHT31;69168;42.708;23.286;2023-11-19T07:37:06;2.61;67.78
79698;SHT31;69168;42.708;23.286;2023-11-19T07:39:32;2.62;67.95
79698;SHT31;69168;42.708;23.286;2023-11-19T07:41:58;2.74;67.49
79698;SHT31;69168;42.708;23.286;2023-11-19T07:44:23;2.73;67.64
79698;SHT31;69168;42.708;23.286;2023-11-19T07:46:50;2.71;67.31
79698;SHT31;69168;42.708;23.286;2023-11-19T07:49:19;2.67;67.15
79698;SHT31;69168;42.708;23.286;2023-11-19T07:51:45;2.73;67.15
79698;SHT31;69168;42.708;23.286;2023-11-19T07:54:10;2.70;67.25
79698;SHT31;69168;42.708;23.286;2023-11-19T07:56:36;2.74;67.21
79698;SHT31;69168;42.708;23.286;2023-11-19T07:59:02;2.70;67.29
79698;SHT31;69168;42.708;23.286;2023-11-19T08:01:28;2.65;67.26
79698;SHT31;69168;42.708;23.286;2023-11-19T08:03:56;2.78;67.20
79698;SHT31;69168;42.708;23.286;2023-11-19T08:06:25;2.68;67.23
79698;SHT31;69168;42.708;23.286;2023-11-19T08:08:50;2.67;67.22
79698;SHT31;69168;42.708;23.286;2023-11-19T08:11:17;2.68;67.35
79698;SHT31;69168;42.708;23.286;2023-11-19T08:13:42;2.77;67.12
79698;SHT31;69168;42.708;23.286;2023-11-19T08:16:08;2.80;67.44
79698;SHT31;69168;42.708;23.286;2023-11-19T08:18:34;2.78;67.14
79698;SHT31;69168;42.708;23.286;2023-11-19T08:21:00;2.68;67.59
79698;SHT31;69168;42.708;23.286;2023-11-19T08:23:28;2.58;67.52
79698;SHT31;69168;42.708;23.286;2023-11-19T08:25:54;2.57;67.77
79698;SHT31;69168;42.708;23.286;2023-11-19T08:28:22;2.62;67.90
79698;SHT31;69168;42.708;23.286;2023-11-19T08:30:47;2.70;67.16
79698;SHT31;69168;42.708;23.286;2023-11-19T08:33:12;2.58;67.63
79698;SHT31;69168;42.708;23.286;2023-11-19T08:35:38;2.64;67.29
79698;SHT31;69168;42.708;23.286;2023-11-19T08:38:04;2.65;67.30
79698;SHT31;69168;42.708;23.286;2023-11-19T08:40:29;2.68;67.25
79698;SHT31;69168;42.708;23.286;2023-11-19T08:42:58;2.74;67.28
79698;SHT31;69168;42.708;23.286;2023-11-19T08:45:26;2.64;67.24
79698;SHT31;69168;42.708;23.286;2023-11-19T08:47:51;2.77;67.05
79698;SHT31;69168;42.708;23.286;2023-11-19T08:50:17;2.76;66.80
79698;SHT31;69168;42.708;23.286;2023-11-19T08:52:42;2.83;66.66
79698;SHT31;69168;42.708;23.286;2023-11-19T08:55:11;2.77;66.80
79698;SHT31;69168;42.708;23.286;2023-11-19T08:57:39;2.78;66.72
79698;SHT31;69168;42.708;23.286;2023-11-19T09:00:08;2.81;66.52
79698;SHT31;69168;42.708;23.286;2023-11-19T09:02:36;2.92;66.17
79698;SHT31;69168;42.708;23.286;2023-11-19T09:05:02;2.98;66.16
79698;SHT31;69168;42.708;23.286;2023-11-19T09:07:28;3.01;66.48
79698;SHT31;69168;42.708;23.286;2023-11-19T09:09:54;3.02;66.40
79698;SHT31;69168;42.708;23.286;2023-11-19T09:12:19;3.01;66.04
79698;SHT31;69168;42.708;23.286;2023-11-19T09:14:44;2.94;65.92
79698;SHT31;69168;42.708;23.286;2023-11-19T09:17:13;3.02;65.63
79698;SHT31;69168;42.708;23.286;2023-11-19T09:19:39;2.97;65.79
79698;SHT31;69168;42.708;23.286;2023-11-19T09:22:04;3.01;65.79
79698;SHT31;69168;42.708;23.286;2023-11-19T09:24:30;3.06;65.82
79698;SHT31;69168;42.708;23.286;2023-11-19T09:26:55;3.15;65.85
79698;SHT31;69168;42.708;23.286;2023-11-19T09:29:21;3.27;65.49
79698;SHT31;69168;42.708;23.286;2023-11-19T09:31:47;3.18;65.06
79698;SHT31;69168;42.708;23.286;2023-11-19T09:34:15;3.04;65.30
79698;SHT31;69168;42.708;23.286;2023-11-19T09:36:43;3.08;65.31
79698;SHT31;69168;42.708;23.286;2023-11-19T09:39:13;3.18;65.24
79698;SHT31;69168;42.708;23.286;2023-11-19T09:41:44;3.13;64.51
79698;SHT31;69168;42.708;23.286;2023-11-19T09:44:13;3.02;64.87
79698;SHT31;69168;42.708;23.286;2023-11-19T09:46:42;3.02;65.10
79698;SHT31;69168;42.708;23.286;2023-11-19T09:49:09;3.20;64.93
79698;SHT31;69168;42.708;23.286;2023-11-19T09:51:44;3.29;64.28
79698;SHT31;69168;42.708;23.286;2023-11-19T09:54:09;3.46;63.86
79698;SHT31;69168;42.708;23.286;2023-11-19T09:56:38;3.66;63.59
79698;SHT31;69168;42.708;23.286;2023-11-19T09:59:05;3.63;63.47
79698;SHT31;69168;42.708;23.286;2023-11-19T10:01:30;3.50;64.08
79698;SHT31;69168;42.708;23.286;2023-11-19T10:03:57;3.63;63.74
79698;SHT31;69168;42.708;23.286;2023-11-19T10:06:24;3.59;64.38
79698;SHT31;69168;42.708;23.286;2023-11-19T10:08:52;3.75;64.06
79698;SHT31;69168;42.708;23.286;2023-11-19T10:11:17;3.66;63.98
79698;SHT31;69168;42.708;23.286;2023-11-19T10:13:43;3.82;63.83
79698;SHT31;69168;42.708;23.286;2023-11-19T10:16:12;3.77;63.66
79698;SHT31;69168;42.708;23.286;2023-11-19T10:18:51;3.53;63.80
79698;SHT31;69168;42.708;23.286;2023-11-19T10:21:19;3.59;64.33
79698;SHT31;69168;42.708;23.286;2023-11-19T10:23:57;3.50;64.52
79698;SHT31;69168;42.708;23.286;2023-11-19T10:26:25;3.50;64.52
79698;SHT31;69168;42.708;23.286;2023-11-19T10:28:51;3.44;64.65
79698;SHT31;69168;42.708;23.286;2023-11-19T10:31:25;3.40;64.69
79698;SHT31;69168;42.708;23.286;2023-11-19T10:33:53;3.47;64.92
79698;SHT31;69168;42.708;23.286;2023-11-19T10:36:20;3.56;64.59
79698;SHT31;69168;42.708;23.286;2023-11-19T10:38:56;3.47;64.67
79698;SHT31;69168;42.708;23.286;2023-11-19T10:41:32;3.53;64.09
79698;SHT31;69168;42.708;23.286;2023-11-19T10:43:58;3.42;64.14
79698;SHT31;69168;42.708;23.286;2023-11-19T10:46:36;3.44;64.46
79698;SHT31;69168;42.708;23.286;2023-11-19T10:49:06;3.42;64.06
79698;SHT31;69168;42.708;23.286;2023-11-19T10:51:32;3.49;64.27
79698;SHT31;69168;42.708;23.286;2023-11-19T10:54:07;3.57;64.10
79698;SHT31;69168;42.708;23.286;2023-11-19T10:56:34;3.52;63.86
79698;SHT31;69168;42.708;23.286;2023-11-19T10:59:01;3.49;63.67
79698;SHT31;69168;42.708;23.286;2023-11-19T11:01:39;3.57;63.74
79698;SHT31;69168;42.708;23.286;2023-11-19T11:04:14;3.64;63.54
79698;SHT31;69168;42.708;23.286;2023-11-19T11:06:43;3.78;63.07
79698;SHT31;69168;42.708;23.286;2023-11-19T11:09:10;3.95;62.94
79698;SHT31;69168;42.708;23.286;2023-11-19T11:11:39;4.36;62.16
79698;SHT31;69168;42.708;23.286;2023-11-19T11:14:05;4.60;61.30
79698;SHT31;69168;42.708;23.286;2023-11-19T11:16:32;4.70;60.71
79698;SHT31;69168;42.708;23.286;2023-11-19T11:18:58;5.05;59.74
79698;SHT31;69168;42.708;23.286;2023-11-19T11:21:25;5.16;58.81
79698;SHT31;69168;42.708;23.286;2023-11-19T11:38:07;6.49;55.91
79698;SHT31;69168;42.708;23.286;2023-11-19T11:40:34;6.26;55.64
79698;SHT31;69168;42.708;23.286;2023-11-19T11:42:59;6.47;55.54
79698;SHT31;69168;42.708;23.286;2023-11-19T11:45:40;6.46;55.35
79698;SHT31;69168;42.708;23.286;2023-11-19T11:48:19;6.30;54.75
79698;SHT31;69168;42.708;23.286;2023-11-19T11:50:50;6.32;54.93
79698;SHT31;69168;42.708;23.286;2023-11-19T11:53:18;6.25;55.16
79698;SHT31;69168;42.708;23.286;2023-11-19T11:58:13;6.70;54.34
79698;SHT31;69168;42.708;23.286;2023-11-19T12:00:40;6.74;54.76
79698;SHT31;69168;42.708;23.286;2023-11-19T12:03:07;6.83;54.83
79698;SHT31;69168;42.708;23.286;2023-11-19T12:05:41;6.53;54.45
79698;SHT31;69168;42.708;23.286;2023-11-19T12:08:11;6.98;54.27
79698;SHT31;69168;42.708;23.286;2023-11-19T12:10:57;6.99;53.25
79698;SHT31;69168;42.708;23.286;2023-11-19T12:13:23;6.73;54.37
79698;SHT31;69168;42.708;23.286;2023-11-19T12:18:30;6.78;53.88
79698;SHT31;69168;42.708;23.286;2023-11-19T12:20:56;7.04;53.18
79698;SHT31;69168;42.708;23.286;2023-11-19T12:23:23;7.36;53.04
79698;SHT31;69168;42.708;23.286;2023-11-19T12:25:49;7.30;52.85
79698;SHT31;69168;42.708;23.286;2023-11-19T12:28:15;7.34;53.17
79698;SHT31;69168;42.708;23.286;2023-11-19T12:30:44;7.60;52.69
79698;SHT31;69168;42.708;23.286;2023-11-19T12:33:11;7.70;52.72
79698;SHT31;69168;42.708;23.286;2023-11-19T12:35:41;8.10;51.88
79698;SHT31;69168;42.708;23.286;2023-11-19T12:38:08;8.10;51.57
79698;SHT31;69168;42.708;23.286;2023-11-19T12:40:33;7.71;52.20
79698;SHT31;69168;42.708;23.286;2023-11-19T12:42:59;7.81;52.68
79698;SHT31;69168;42.708;23.286;2023-11-19T12:45:34;7.82;52.05
79698;SHT31;69168;42.708;23.286;2023-11-19T12:48:09;7.47;52.41
79698;SHT31;69168;42.708;23.286;2023-11-19T12:50:57;7.16;53.34
79698;SHT31;69168;42.708;23.286;2023-11-19T12:53:23;7.15;53.55
79698;SHT31;69168;42.708;23.286;2023-11-19T12:55:50;7.26;53.48
79698;SHT31;69168;42.708;23.286;2023-11-19T12:58:33;7.23;53.71
79698;SHT31;69168;42.708;23.286;2023-11-19T13:01:06;7.22;53.50
79698;SHT31;69168;42.708;23.286;2023-11-19T13:03:33;7.42;53.40
79698;SHT31;69168;42.708;23.286;2023-11-19T13:06:17;7.51;53.18
79698;SHT31;69168;42.708;23.286;2023-11-19T13:08:46;7.33;52.95
79698;SHT31;69168;42.708;23.286;2023-11-19T13:11:13;7.29;53.07
79698;SHT31;69168;42.708;23.286;2023-11-19T13:14:02;7.33;52.64
79698;SHT31;69168;42.708;23.286;2023-11-19T13:16:31;7.36;52.89
79698;SHT31;69168;42.708;23.286;2023-11-19T13:18:57;7.43;52.76
79698;SHT31;69168;42.708;23.286;2023-11-19T13:21:23;7.32;52.37
79698;SHT31;69168;42.708;23.286;2023-11-19T13:23:50;7.47;52.41
79698;SHT31;69168;42.708;23.286;2023-11-19T13:26:34;7.23;53.03
79698;SHT31;69168;42.708;23.286;2023-11-19T13:29:00;7.44;52.50
79698;SHT31;69168;42.708;23.286;2023-11-19T13:31:26;7.40;53.12
79698;SHT31;69168;42.708;23.286;2023-11-19T13:33:51;7.22;53.72
79698;SHT31;69168;42.708;23.286;2023-11-19T13:36:17;7.40;52.90
79698;SHT31;69168;42.708;23.286;2023-11-19T13:38:42;7.43;52.95
79698;SHT31;69168;42.708;23.286;2023-11-19T13:41:33;7.26;53.43
79698;SHT31;69168;42.708;23.286;2023-11-19T13:43:57;7.43;53.46
79698;SHT31;69168;42.708;23.286;2023-11-19T13:46:23;7.51;53.55
79698;SHT31;69168;42.708;23.286;2023-11-19T13:48:51;7.91;52.66
79698;SHT31;69168;42.708;23.286;2023-11-19T13:51:17;8.01;52.85
79698;SHT31;69168;42.708;23.286;2023-11-19T13:53:42;7.77;52.82
79698;SHT31;69168;42.708;23.286;2023-11-19T13:56:08;7.60;53.23
79698;SHT31;69168;42.708;23.286;2023-11-19T13:58:37;7.56;53.32
79698;SHT31;69168;42.708;23.286;2023-11-19T14:01:05;7.56;52.93
79698;SHT31;69168;42.708;23.286;2023-11-19T14:03:33;7.47;52.79
79698;SHT31;69168;42.708;23.286;2023-11-19T14:06:02;7.33;53.27
79698;SHT31;69168;42.708;23.286;2023-11-19T14:08:30;7.39;53.17
79698;SHT31;69168;42.708;23.286;2023-11-19T14:10:56;7.12;53.54
79698;SHT31;69168;42.708;23.286;2023-11-19T14:13:22;7.11;53.96
79698;SHT31;69168;42.708;23.286;2023-11-19T14:15:52;7.09;54.52
79698;SHT31;69168;42.708;23.286;2023-11-19T14:18:18;6.89;55.04
79698;SHT31;69168;42.708;23.286;2023-11-19T14:20:43;6.81;55.21
79698;SHT31;69168;42.708;23.286;2023-11-19T14:23:09;6.56;55.85
79698;SHT31;69168;42.708;23.286;2023-11-19T14:25:34;6.53;56.09
79698;SHT31;69168;42.708;23.286;2023-11-19T14:28:00;6.73;55.95
79698;SHT31;69168;42.708;23.286;2023-11-19T14:30:25;6.74;56.07
79698;SHT31;69168;42.708;23.286;2023-11-19T14:32:52;6.56;56.58
79698;SHT31;69168;42.708;23.286;2023-11-19T14:35:21;6.64;56.61
79698;SHT31;69168;42.708;23.286;2023-11-19T14:37:50;6.26;56.94
79698;SHT31;69168;42.708;23.286;2023-11-19T14:40:42;6.30;57.17
79698;SHT31;69168;42.708;23.286;2023-11-19T14:43:09;6.18;57.67
79698;SHT31;69168;42.708;23.286;2023-11-19T14:45:37;6.16;57.57
79698;SHT31;69168;42.708;23.286;2023-11-19T14:48:03;5.85;58.32
79698;SHT31;69168;42.708;23.286;2023-11-19T14:50:28;5.83;58.73
79698;SHT31;69168;42.708;23.286;2023-11-19T14:52:54;5.88;59.03
79698;SHT31;69168;42.708;23.286;2023-11-19T14:55:27;5.74;58.99
79698;SHT31;69168;42.708;23.286;2023-11-19T14:57:56;5.63;59.26
79698;SHT31;69168;42.708;23.286;2023-11-19T15:00:22;5.51;59.41
79698;SHT31;69168;42.708;23.286;2023-11-19T15:03:06;5.39;60.24
79698;SHT31;69168;42.708;23.286;2023-11-19T15:09:03;5.48;59.90
79698;SHT31;69168;42.708;23.286;2023-11-19T15:11:31;5.40;60.06
79698;SHT31;69168;42.708;23.286;2023-11-19T15:14:01;5.26;60.37
79698;SHT31;69168;42.708;23.286;2023-11-19T15:16:43;5.07;61.15
79698;SHT31;69168;42.708;23.286;2023-11-19T15:19:21;5.12;61.14
79698;SHT31;69168;42.708;23.286;2023-11-19T15:21:49;5.04;61.45
79698;SHT31;69168;42.708;23.286;2023-11-19T15:27:26;5.09;61.21
79698;SHT31;69168;42.708;23.286;2023-11-19T15:30:12;4.93;61.50
79698;SHT31;69168;42.708;23.286;2023-11-19T15:32:41;4.95;61.69
79698;SHT31;69168;42.708;23.286;2023-11-19T15:35:12;4.91;61.48
79698;SHT31;69168;42.708;23.286;2023-11-19T15:37:38;4.93;61.70
79698;SHT31;69168;42.708;23.286;2023-11-19T15:40:07;4.74;62.09
79698;SHT31;69168;42.708;23.286;2023-11-19T15:42:41;4.84;62.23
79698;SHT31;69168;42.708;23.286;2023-11-19T15:45:15;4.75;62.20
79698;SHT31;69168;42.708;23.286;2023-11-19T15:47:41;4.89;61.86
79698;SHT31;69168;42.708;23.286;2023-11-19T15:50:07;4.81;62.11
79698;SHT31;69168;42.708;23.286;2023-11-19T15:52:35;4.74;62.28
79698;SHT31;69168;42.708;23.286;2023-11-19T15:55:00;4.67;62.55
79698;SHT31;69168;42.708;23.286;2023-11-19T15:57:26;4.71;62.57
79698;SHT31;69168;42.708;23.286;2023-11-19T15:59:52;4.63;62.71
79698;SHT31;69168;42.708;23.286;2023-11-19T16:02:17;4.74;62.41
79698;SHT31;69168;42.708;23.286;2023-11-19T16:04:43;4.78;62.46
79698;SHT31;69168;42.708;23.286;2023-11-19T16:07:15;4.64;62.46